createdAt,value
2022-12-07T00:01:39.860Z,89.83
2022-12-07T00:04:08.469Z,90.20
2022-12-07T00:06:41.275Z,90.32
2022-12-07T00:09:11.192Z,89.99
2022-12-07T00:11:38.101Z,89.94
2022-12-07T00:14:08.171Z,90.24
2022-12-07T00:16:36.504Z,90.29
2022-12-07T00:19:04.309Z,90.18
2022-12-07T00:21:33.232Z,90.30
2022-12-07T00:23:59.786Z,90.38
2022-12-07T00:26:32.079Z,90.34
2022-12-07T00:29:01.895Z,90.21
2022-12-07T00:31:32.591Z,90.33
2022-12-07T00:33:59.433Z,90.50
2022-12-07T00:36:27.590Z,90.52
2022-12-07T00:38:55.870Z,89.98
2022-12-07T00:41:25.064Z,90.12
2022-12-07T00:43:52.226Z,90.46
2022-12-07T00:46:20.894Z,90.18
2022-12-07T00:48:48.577Z,90.25
2022-12-07T00:51:16.851Z,90.55
2022-12-07T00:53:43.314Z,90.27
2022-12-07T00:56:15.007Z,90.47
2022-12-07T00:58:42.029Z,90.24
2022-12-07T01:01:09.946Z,90.33
2022-12-07T01:03:37.465Z,90.37
2022-12-07T01:06:04.483Z,90.58
2022-12-07T01:08:31.245Z,90.31
2022-12-07T01:11:05.904Z,90.29
2022-12-07T01:13:33.840Z,90.17
2022-12-07T01:16:02.747Z,89.99
2022-12-07T01:18:30.344Z,90.24
2022-12-07T01:21:05.238Z,90.05
2022-12-07T01:23:32.800Z,90.01
2022-12-07T01:26:01.451Z,89.89
2022-12-07T01:28:28.485Z,90.03
2022-12-07T01:31:06.927Z,90.13
2022-12-07T01:33:36.508Z,90.15
2022-12-07T01:36:05.191Z,89.97
2022-12-07T01:38:32.955Z,90.11
2022-12-07T01:41:00.941Z,89.89
2022-12-07T01:43:30.232Z,89.94
2022-12-07T01:45:57.512Z,89.95
2022-12-07T01:48:35.498Z,89.89
2022-12-07T01:51:09.788Z,90.05
2022-12-07T01:53:39.012Z,89.75
2022-12-07T01:56:09.332Z,89.62
2022-12-07T01:58:36.565Z,89.92
2022-12-07T02:01:03.279Z,89.68
2022-12-07T02:03:40.154Z,89.81
2022-12-07T02:06:09.158Z,89.68
2022-12-07T02:08:36.165Z,89.88
2022-12-07T02:11:08.221Z,89.71
2022-12-07T02:13:37.522Z,89.93
2022-12-07T02:16:15.992Z,89.81
2022-12-07T02:18:51.816Z,89.58
2022-12-07T02:21:35.995Z,89.62
2022-12-07T02:24:15.702Z,89.37
2022-12-07T02:27:03.207Z,89.74
2022-12-07T02:29:48.635Z,89.54
2022-12-07T02:32:27.453Z,89.75
2022-12-07T02:35:07.965Z,89.82
2022-12-07T02:37:37.557Z,89.48
2022-12-07T02:40:14.029Z,89.78
2022-12-07T02:43:08.594Z,89.43
2022-12-07T02:45:39.308Z,89.32
2022-12-07T02:48:07.948Z,89.35
2022-12-07T02:50:34.548Z,89.25
2022-12-07T02:53:01.316Z,89.61
2022-12-07T02:55:41.429Z,89.58
2022-12-07T02:58:24.956Z,89.64
2022-12-07T03:01:15.801Z,89.12
2022-12-07T03:03:48.233Z,89.37
2022-12-07T03:06:23.903Z,89.48
2022-12-07T03:09:10.502Z,89.41
2022-12-07T03:11:51.840Z,89.11
2022-12-07T03:14:26.133Z,89.14
2022-12-07T03:17:07.444Z,89.25
2022-12-07T03:19:36.409Z,89.14
2022-12-07T03:22:08.826Z,89.41
2022-12-07T03:24:41.630Z,89.34
2022-12-07T03:27:14.425Z,89.24
2022-12-07T03:29:51.104Z,89.18
2022-12-07T03:32:27.042Z,88.61
2022-12-07T03:35:08.510Z,88.97
2022-12-07T03:37:43.408Z,89.13
2022-12-07T03:40:19.393Z,88.92
2022-12-07T03:42:46.514Z,88.78
2022-12-07T03:45:13.955Z,88.84
2022-12-07T03:48:06.676Z,88.89
2022-12-07T03:50:58.143Z,89.07
2022-12-07T03:53:36.453Z,88.96
2022-12-07T03:56:04.417Z,88.95
2022-12-07T03:58:31.494Z,88.54
2022-12-07T04:00:58.310Z,89.03
2022-12-07T04:03:24.858Z,88.78
2022-12-07T04:05:51.447Z,88.50
2022-12-07T04:08:18.023Z,88.71
2022-12-07T04:10:44.629Z,88.86
2022-12-07T04:13:11.098Z,88.81
2022-12-07T04:15:37.635Z,88.68
2022-12-07T04:18:04.149Z,88.65
2022-12-07T04:20:30.750Z,88.21
2022-12-07T04:22:57.227Z,88.26
2022-12-07T04:25:23.759Z,88.41
2022-12-07T04:27:50.189Z,88.24
2022-12-07T04:30:16.812Z,87.85
2022-12-07T04:32:43.256Z,88.41
2022-12-07T04:35:10.092Z,88.22
2022-12-07T04:37:36.602Z,87.98
2022-12-07T04:40:03.760Z,88.29
2022-12-07T04:42:30.492Z,88.37
2022-12-07T04:44:57.002Z,88.24
2022-12-07T04:47:23.437Z,88.13
2022-12-07T04:49:49.963Z,88.07
2022-12-07T04:52:16.398Z,88.05
2022-12-07T04:54:42.851Z,87.93
2022-12-07T04:57:09.714Z,87.95
2022-12-07T04:59:39.804Z,88.02
2022-12-07T05:02:08.801Z,87.82
2022-12-07T05:04:35.287Z,88.04
2022-12-07T05:07:01.718Z,87.73
2022-12-07T05:09:28.170Z,87.54
2022-12-07T05:11:54.635Z,87.56
2022-12-07T05:14:21.767Z,87.73
2022-12-07T05:16:51.521Z,87.85
2022-12-07T05:19:19.740Z,87.82
2022-12-07T05:21:46.610Z,87.80
2022-12-07T05:24:14.609Z,87.99
2022-12-07T05:26:41.469Z,88.43
2022-12-07T05:29:08.905Z,87.60
2022-12-07T05:31:35.575Z,87.85
2022-12-07T05:34:02.404Z,87.65
2022-12-07T05:36:29.775Z,87.91
2022-12-07T05:38:56.434Z,87.71
2022-12-07T05:41:41.665Z,87.65
2022-12-07T05:44:08.331Z,87.66
2022-12-07T05:46:35.564Z,87.45
2022-12-07T05:49:02.445Z,87.32
2022-12-07T05:51:29.061Z,87.16
2022-12-07T05:53:55.843Z,87.39
2022-12-07T05:56:23.814Z,87.26
2022-12-07T05:59:08.810Z,87.56
2022-12-07T06:01:35.277Z,87.10
2022-12-07T06:04:01.794Z,87.06
2022-12-07T06:06:28.379Z,86.91
2022-12-07T06:08:54.906Z,86.84
2022-12-07T06:11:39.954Z,86.72
2022-12-07T06:14:06.742Z,86.94
2022-12-07T06:16:33.252Z,86.77
2022-12-07T06:18:59.705Z,86.63
2022-12-07T06:21:27.638Z,86.52
2022-12-07T06:23:54.933Z,86.40
2022-12-07T06:26:21.836Z,86.57
2022-12-07T06:28:48.328Z,86.47
2022-12-07T06:31:14.845Z,86.51
2022-12-07T06:33:42.756Z,86.21
2022-12-07T06:36:10.112Z,86.38
2022-12-07T06:38:36.960Z,86.40
2022-12-07T06:41:03.593Z,85.97
2022-12-07T06:43:30.263Z,86.43
2022-12-07T06:45:56.869Z,86.28
2022-12-07T06:48:23.342Z,86.10
2022-12-07T06:50:54.816Z,86.50
2022-12-07T06:53:22.434Z,85.97
2022-12-07T06:55:48.888Z,86.14
2022-12-07T06:58:15.335Z,86.21
2022-12-07T07:00:42.080Z,86.44
2022-12-07T07:03:08.764Z,86.32
2022-12-07T07:05:35.779Z,86.73
2022-12-07T07:08:22.028Z,86.54
2022-12-07T07:10:48.965Z,86.32
2022-12-07T07:13:15.711Z,86.25
2022-12-07T07:15:42.290Z,86.43
2022-12-07T07:18:08.962Z,86.51
2022-12-07T07:20:35.735Z,86.24
2022-12-07T07:23:02.263Z,86.44
2022-12-07T07:25:28.816Z,86.44
2022-12-07T07:27:57.489Z,86.80
2022-12-07T07:30:24.663Z,86.40
2022-12-07T07:32:51.266Z,86.92
2022-12-07T07:35:18.310Z,86.28
2022-12-07T07:37:44.800Z,86.19
2022-12-07T07:40:11.613Z,85.98
2022-12-07T07:42:38.054Z,86.07
2022-12-07T07:45:05.813Z,86.00
2022-12-07T07:47:32.316Z,85.93
2022-12-07T07:49:58.945Z,86.11
2022-12-07T07:52:25.710Z,85.70
2022-12-07T07:54:54.609Z,85.85
2022-12-07T07:57:21.086Z,85.94
2022-12-07T07:59:47.633Z,85.53
2022-12-07T08:02:19.747Z,85.32
2022-12-07T08:04:47.046Z,85.26
2022-12-07T08:07:14.545Z,85.45
2022-12-07T08:09:41.223Z,85.37
2022-12-07T08:12:07.858Z,85.02
2022-12-07T08:14:35.395Z,85.45
2022-12-07T08:17:02.135Z,85.57
2022-12-07T08:19:28.580Z,85.09
2022-12-07T08:21:56.460Z,85.15
2022-12-07T08:24:23.826Z,85.01
2022-12-07T08:26:51.422Z,84.95
2022-12-07T08:29:18.543Z,85.02
2022-12-07T08:31:45.335Z,85.00
2022-12-07T08:34:12.769Z,84.94
2022-12-07T08:36:39.433Z,84.72
2022-12-07T08:41:53.541Z,84.86
2022-12-07T08:44:19.978Z,84.79
2022-12-07T08:46:54.938Z,84.84
2022-12-07T08:49:32.506Z,84.50
2022-12-07T08:52:00.111Z,84.75
2022-12-07T08:54:27.194Z,84.45
2022-12-07T08:56:59.321Z,84.45
2022-12-07T08:59:28.733Z,84.90
2022-12-07T09:01:55.524Z,84.61
2022-12-07T09:04:22.401Z,84.84
2022-12-07T09:06:49.220Z,85.07
2022-12-07T09:09:15.953Z,85.09
2022-12-07T09:11:42.873Z,84.89
2022-12-07T09:14:09.579Z,84.92
2022-12-07T09:16:36.115Z,84.85
2022-12-07T09:19:02.863Z,84.55
2022-12-07T09:21:29.403Z,83.96
2022-12-07T09:23:55.854Z,84.20
2022-12-07T09:26:22.428Z,84.35
2022-12-07T09:28:48.965Z,84.31
2022-12-07T09:31:23.424Z,84.60
2022-12-07T09:33:58.175Z,84.55
2022-12-07T09:36:25.161Z,84.44
2022-12-07T09:38:51.843Z,84.26
2022-12-07T09:41:19.086Z,84.50
2022-12-07T09:43:46.736Z,84.25
2022-12-07T09:46:16.641Z,84.34
2022-12-07T09:48:44.567Z,84.21
2022-12-07T09:51:24.869Z,84.15
2022-12-07T09:53:57.332Z,83.85
2022-12-07T09:56:24.954Z,83.91
2022-12-07T09:58:59.057Z,83.08
2022-12-07T10:01:25.617Z,83.11
2022-12-07T10:04:15.097Z,82.90
2022-12-07T10:06:42.947Z,82.70
2022-12-07T10:09:14.051Z,82.20
2022-12-07T10:12:18.905Z,82.26
2022-12-07T10:15:07.715Z,82.25
2022-12-07T10:17:42.058Z,82.21
2022-12-07T10:20:14.657Z,81.65
2022-12-07T10:22:55.181Z,81.52
2022-12-07T10:25:23.862Z,81.22
2022-12-07T10:28:19.569Z,81.14
2022-12-07T10:31:03.445Z,81.01
2022-12-07T10:33:38.652Z,81.06
2022-12-07T10:36:27.394Z,80.87
2022-12-07T10:39:19.430Z,80.81
2022-12-07T10:41:57.174Z,80.51
2022-12-07T10:44:27.138Z,80.90
2022-12-07T10:47:26.283Z,81.27
2022-12-07T10:50:24.965Z,81.15
2022-12-07T10:53:18.232Z,81.42
2022-12-07T10:55:47.438Z,81.33
2022-12-07T10:58:13.822Z,81.07
2022-12-07T11:01:12.810Z,80.91
2022-12-07T11:03:56.097Z,81.36
2022-12-07T11:06:41.385Z,80.66
2022-12-07T11:10:07.406Z,80.82
2022-12-07T11:12:33.514Z,80.35
2022-12-07T11:15:12.373Z,80.35
2022-12-07T11:18:16.641Z,80.03
2022-12-07T11:21:08.698Z,80.46
2022-12-07T11:23:50.511Z,80.11
2022-12-07T11:26:23.455Z,79.61
2022-12-07T11:29:24.985Z,79.72
2022-12-07T11:32:23.906Z,79.58
2022-12-07T11:35:09.249Z,79.80
2022-12-07T11:40:37.327Z,79.51
2022-12-07T11:43:25.631Z,79.40
2022-12-07T11:46:15.063Z,78.95
2022-12-07T11:48:47.793Z,78.73
2022-12-07T11:51:15.942Z,78.98
2022-12-07T11:53:52.039Z,78.99
2022-12-07T11:56:22.588Z,78.63
2022-12-07T11:58:50.482Z,78.91
2022-12-07T12:01:32.954Z,79.09
2022-12-07T12:04:12.646Z,79.47
2022-12-07T12:06:43.504Z,79.04
2022-12-07T12:15:23.783Z,79.60
2022-12-07T12:18:22.375Z,79.17
2022-12-07T12:20:57.399Z,79.32
2022-12-07T12:23:36.626Z,79.34
2022-12-07T12:26:06.288Z,79.07
2022-12-07T12:28:53.626Z,79.30
2022-12-07T12:31:22.861Z,79.33
2022-12-07T12:33:59.630Z,79.20
2022-12-07T12:36:32.023Z,78.72
2022-12-07T12:39:07.772Z,79.01
2022-12-07T12:41:57.486Z,79.10
2022-12-07T12:44:23.902Z,79.18
2022-12-07T12:47:04.361Z,79.22
2022-12-07T12:49:40.082Z,79.28
2022-12-07T12:52:15.424Z,78.73
2022-12-07T12:55:12.668Z,78.03
2022-12-07T12:57:39.165Z,77.57
2022-12-07T13:00:23.960Z,77.16
2022-12-07T13:02:57.538Z,77.09
2022-12-07T13:05:28.634Z,77.16
2022-12-07T13:07:57.220Z,77.12
2022-12-07T13:10:33.711Z,77.12
2022-12-07T13:13:25.945Z,77.53
2022-12-07T13:15:54.835Z,77.30
2022-12-07T13:18:30.324Z,77.41
2022-12-07T13:21:24.118Z,78.15
2022-12-07T13:23:51.345Z,78.45
2022-12-07T13:26:35.621Z,78.48
2022-12-07T13:29:08.105Z,79.27
2022-12-07T13:31:41.485Z,79.63
2022-12-07T13:34:29.432Z,79.34
2022-12-07T13:36:56.766Z,79.78
2022-12-07T13:39:26.643Z,79.63
2022-12-07T13:41:56.343Z,80.01
2022-12-07T13:44:24.080Z,80.08
2022-12-07T13:47:20.345Z,80.33
2022-12-07T13:49:54.285Z,80.07
2022-12-07T13:52:30.866Z,80.00
2022-12-07T13:55:02.347Z,80.01
2022-12-07T13:57:35.519Z,80.27
2022-12-07T14:00:07.951Z,79.80
2022-12-07T14:02:39.923Z,79.34
2022-12-07T14:05:24.058Z,79.16
2022-12-07T14:07:55.953Z,78.53
2022-12-07T14:10:36.941Z,78.39
2022-12-07T14:13:20.662Z,78.69
2022-12-07T14:15:51.793Z,78.43
2022-12-07T14:18:39.152Z,78.87
2022-12-07T14:21:11.635Z,79.20
2022-12-07T14:23:40.277Z,79.09
2022-12-07T14:26:12.664Z,78.89
2022-12-07T14:28:39.188Z,78.99
2022-12-07T14:31:16.437Z,79.19
2022-12-07T14:33:47.109Z,78.74
2022-12-07T14:36:14.919Z,78.96
2022-12-07T14:38:41.817Z,79.13
2022-12-07T14:41:34.257Z,79.18
2022-12-07T14:44:22.289Z,79.56
2022-12-07T14:46:50.213Z,79.51
2022-12-07T14:49:33.430Z,79.41
2022-12-07T14:54:46.938Z,79.73
2022-12-07T14:57:13.629Z,79.78
2022-12-07T14:59:44.859Z,79.86
2022-12-07T15:02:14.200Z,80.22
2022-12-07T15:04:41.218Z,80.45
2022-12-07T15:07:18.508Z,80.21
2022-12-07T15:09:45.084Z,80.25
2022-12-07T15:12:11.564Z,80.50
2022-12-07T15:14:38.000Z,80.58
2022-12-07T15:17:09.316Z,80.56
2022-12-07T15:19:36.434Z,80.47
2022-12-07T15:22:03.219Z,80.83
2022-12-07T15:24:30.288Z,80.76
2022-12-07T15:26:56.742Z,80.85
2022-12-07T15:29:24.050Z,80.58
2022-12-07T15:31:57.495Z,81.08
2022-12-07T15:34:26.779Z,81.21
2022-12-07T15:36:53.251Z,80.93
2022-12-07T15:39:19.809Z,81.31
2022-12-07T15:41:46.450Z,81.31
2022-12-07T15:44:33.376Z,81.80
2022-12-07T15:47:00.577Z,81.48
2022-12-07T15:49:27.883Z,81.58
2022-12-07T15:51:54.677Z,81.94
2022-12-07T15:54:29.492Z,82.19
2022-12-07T15:56:56.599Z,82.08
2022-12-07T15:59:23.955Z,81.94
2022-12-07T16:01:50.533Z,81.99
2022-12-07T16:04:17.203Z,81.70
2022-12-07T16:06:43.716Z,81.95
2022-12-07T16:09:10.459Z,81.75
2022-12-07T16:11:37.098Z,81.56
2022-12-07T16:14:03.565Z,81.21
2022-12-07T16:16:30.110Z,81.38
2022-12-07T16:18:56.754Z,81.46
2022-12-07T16:21:25.437Z,81.30
2022-12-07T16:23:52.725Z,81.16
2022-12-07T16:26:22.349Z,80.98
2022-12-07T16:28:53.634Z,81.12
2022-12-07T16:31:23.098Z,81.11
2022-12-07T16:33:50.781Z,80.72
2022-12-07T16:36:39.905Z,80.53
2022-12-07T16:39:05.790Z,79.82
2022-12-07T16:41:32.833Z,80.15
2022-12-07T16:44:07.296Z,79.69
2022-12-07T16:46:36.920Z,79.93
2022-12-07T16:49:04.342Z,79.83
2022-12-07T16:51:31.631Z,79.94
2022-12-07T16:53:58.249Z,80.05
2022-12-07T16:56:25.678Z,79.59
2022-12-07T16:58:52.137Z,79.60
2022-12-07T17:01:22.898Z,79.39
2022-12-07T17:03:49.916Z,79.79
2022-12-07T17:06:22.085Z,79.54
2022-12-07T17:08:50.044Z,79.36
2022-12-07T17:11:28.253Z,79.76
2022-12-07T17:14:31.300Z,80.41
2022-12-07T17:16:57.775Z,80.18
2022-12-07T17:19:24.289Z,80.88
2022-12-07T17:21:53.071Z,81.11
2022-12-07T17:24:19.571Z,81.32
2022-12-07T17:26:47.101Z,81.47
2022-12-07T17:29:16.345Z,81.83
2022-12-07T17:31:47.713Z,81.47
2022-12-07T17:34:17.452Z,82.01
2022-12-07T17:36:45.920Z,81.81
2022-12-07T17:39:16.103Z,81.62
2022-12-07T17:42:01.149Z,81.94
2022-12-07T17:44:28.381Z,82.04
2022-12-07T17:46:57.700Z,81.97
2022-12-07T17:49:25.188Z,81.54
2022-12-07T17:52:10.410Z,81.72
2022-12-07T17:54:36.898Z,81.76
2022-12-07T17:57:03.739Z,81.58
2022-12-07T17:59:30.243Z,81.84
2022-12-07T18:01:56.836Z,81.55
2022-12-07T18:04:23.417Z,81.57
2022-12-07T18:06:52.345Z,82.16
2022-12-07T18:09:19.857Z,81.70
2022-12-07T18:11:46.390Z,81.92
2022-12-07T18:14:12.879Z,81.80
2022-12-07T18:16:39.403Z,82.03
2022-12-07T18:19:08.869Z,82.23
2022-12-07T18:21:35.289Z,81.82
2022-12-07T18:24:04.552Z,82.02
2022-12-07T18:26:33.889Z,81.96
2022-12-07T18:29:01.008Z,82.18
2022-12-07T18:31:28.812Z,82.38
2022-12-07T18:33:56.572Z,82.16
2022-12-07T18:36:23.675Z,82.18
2022-12-07T18:38:51.165Z,82.19
2022-12-07T18:41:17.953Z,81.79
2022-12-07T18:43:44.583Z,81.64
2022-12-07T18:46:12.063Z,81.74
2022-12-07T18:48:38.592Z,81.71
2022-12-07T18:51:06.924Z,81.86
2022-12-07T18:53:34.572Z,82.26
2022-12-07T18:56:19.190Z,82.02
2022-12-07T18:59:11.741Z,82.03
2022-12-07T19:01:38.816Z,82.38
2022-12-07T19:04:05.790Z,82.56
2022-12-07T19:06:32.675Z,82.19
2022-12-07T19:08:59.559Z,82.18
2022-12-07T19:11:51.899Z,82.45
2022-12-07T19:14:20.772Z,82.63
2022-12-07T19:16:49.968Z,82.50
2022-12-07T19:19:21.426Z,82.60
2022-12-07T19:21:48.587Z,82.72
2022-12-07T19:24:19.676Z,82.84
2022-12-07T19:26:48.021Z,83.22
2022-12-07T19:29:14.458Z,82.94
2022-12-07T19:31:40.979Z,83.44
2022-12-07T19:34:09.661Z,83.20
2022-12-07T19:36:36.205Z,83.06
2022-12-07T19:39:02.896Z,83.47
2022-12-07T19:41:35.385Z,83.60
2022-12-07T19:44:05.070Z,83.46
2022-12-07T19:46:31.900Z,83.61
2022-12-07T19:48:58.904Z,83.26
2022-12-07T19:51:25.379Z,83.87
2022-12-07T19:53:52.032Z,83.97
2022-12-07T19:56:20.233Z,84.18
2022-12-07T19:58:47.926Z,83.95
2022-12-07T20:01:14.954Z,83.80
2022-12-07T20:03:43.817Z,83.84
2022-12-07T20:06:14.978Z,83.74
2022-12-07T20:08:42.563Z,83.75
2022-12-07T20:11:27.552Z,83.79
2022-12-07T20:13:54.058Z,83.93
2022-12-07T20:16:20.887Z,84.11
2022-12-07T20:18:51.626Z,84.17
2022-12-07T20:21:21.550Z,84.00
2022-12-07T20:23:48.014Z,83.86
2022-12-07T20:26:14.722Z,84.02
2022-12-07T20:28:45.932Z,84.54
2022-12-07T20:31:15.169Z,84.20
2022-12-07T20:33:46.068Z,84.37
2022-12-07T20:36:15.287Z,84.74
2022-12-07T20:38:42.953Z,84.45
2022-12-07T20:41:30.178Z,84.55
2022-12-07T20:43:57.042Z,84.99
2022-12-07T20:46:23.831Z,84.75
2022-12-07T20:48:50.921Z,85.05
2022-12-07T20:51:17.766Z,85.07
2022-12-07T20:53:44.255Z,85.51
2022-12-07T20:56:23.263Z,85.69
2022-12-07T20:58:50.044Z,85.71
2022-12-07T21:01:16.806Z,85.64
2022-12-07T21:03:43.862Z,85.52
2022-12-07T21:06:13.755Z,85.92
2022-12-07T21:08:45.282Z,85.60
2022-12-07T21:11:12.579Z,85.79
2022-12-07T21:13:39.276Z,85.98
2022-12-07T21:16:11.394Z,85.81
2022-12-07T21:18:38.487Z,85.84
2022-12-07T21:21:09.276Z,85.61
2022-12-07T21:23:36.753Z,85.72
2022-12-07T21:26:11.592Z,85.70
2022-12-07T21:28:38.346Z,85.46
2022-12-07T21:31:12.888Z,85.67
2022-12-07T21:33:40.470Z,85.37
2022-12-07T21:36:08.346Z,85.84
2022-12-07T21:38:34.913Z,85.36
2022-12-07T21:41:10.772Z,85.08
2022-12-07T21:43:37.331Z,85.12
2022-12-07T21:46:04.615Z,85.09
2022-12-07T21:48:31.144Z,84.91
2022-12-07T21:51:11.031Z,85.12
2022-12-07T21:53:39.230Z,84.64
2022-12-07T21:56:14.298Z,84.51
2022-12-07T21:58:40.810Z,84.82
2022-12-07T22:01:07.320Z,85.06
2022-12-07T22:03:33.798Z,84.70
2022-12-07T22:06:01.645Z,85.24
2022-12-07T22:08:28.384Z,84.77
2022-12-07T22:10:54.956Z,85.42
2022-12-07T22:13:21.386Z,85.23
2022-12-07T22:15:47.891Z,85.08
2022-12-07T22:18:14.429Z,84.94
2022-12-07T22:20:40.869Z,84.79
2022-12-07T22:23:07.495Z,84.97
2022-12-07T22:25:34.014Z,85.03
2022-12-07T22:28:00.544Z,84.91
2022-12-07T22:30:28.440Z,84.85
2022-12-07T22:32:55.286Z,84.47
2022-12-07T22:35:21.993Z,85.10
2022-12-07T22:37:48.419Z,84.92
2022-12-07T22:40:15.124Z,84.97
2022-12-07T22:42:41.794Z,85.06
2022-12-07T22:45:08.859Z,85.05
2022-12-07T22:47:35.374Z,85.46
2022-12-07T22:50:01.835Z,85.51
2022-12-07T22:52:28.377Z,85.64
2022-12-07T22:54:54.834Z,85.60
2022-12-07T22:57:21.310Z,85.42
2022-12-07T22:59:47.796Z,85.56
2022-12-07T23:02:14.617Z,85.67
2022-12-07T23:04:41.170Z,85.57
2022-12-07T23:07:07.691Z,85.32
2022-12-07T23:09:34.185Z,85.37
2022-12-07T23:12:19.240Z,85.39
2022-12-07T23:14:45.733Z,85.33
2022-12-07T23:17:12.161Z,85.38
2022-12-07T23:19:38.685Z,85.70
2022-12-07T23:22:05.161Z,85.53
2022-12-07T23:24:31.699Z,85.47
2022-12-07T23:26:58.657Z,85.43
2022-12-07T23:29:25.122Z,85.04
2022-12-07T23:31:51.717Z,85.32
2022-12-07T23:34:18.320Z,85.52
2022-12-07T23:36:45.040Z,85.43
2022-12-07T23:39:12.092Z,85.39
2022-12-07T23:41:38.954Z,85.37
2022-12-07T23:44:05.637Z,85.69
2022-12-07T23:46:33.263Z,85.40
2022-12-07T23:49:03.865Z,85.41
2022-12-07T23:51:30.597Z,85.26
2022-12-07T23:53:59.443Z,84.99
2022-12-07T23:56:28.475Z,85.07
2022-12-07T23:58:56.140Z,85.49
